createdAt,value
2018-12-09T00:00:22.771Z,98182.81
2018-12-09T00:05:26.057Z,98167.20
2018-12-09T00:10:29.354Z,98140.56
2018-12-09T00:15:32.634Z,98117.43
2018-12-09T00:20:35.910Z,98093.11
2018-12-09T00:25:39.281Z,98081.37
2018-12-09T00:30:42.590Z,98059.41
2018-12-09T00:35:45.869Z,98049.87
2018-12-09T00:40:49.161Z,98036.28
2018-12-09T00:45:52.446Z,98026.56
2018-12-09T00:50:55.953Z,98025.23
2018-12-09T00:55:59.962Z,98012.97
2018-12-09T01:01:03.238Z,97999.92
2018-12-09T01:06:06.510Z,97998.58
2018-12-09T01:11:09.837Z,97995.39
2018-12-09T01:16:13.123Z,97998.58
2018-12-09T01:21:16.406Z,97977.63
2018-12-09T01:26:19.698Z,97966.91
2018-12-09T01:31:22.995Z,97967.05
2018-12-09T01:36:26.280Z,97963.90
2018-12-09T01:41:29.574Z,97958.68
2018-12-09T01:46:32.879Z,97952.16
2018-12-09T01:51:36.164Z,97938.23
2018-12-09T01:56:39.722Z,97929.87
2018-12-09T02:01:43.261Z,97918.95
2018-12-09T02:06:46.551Z,97916.75
2018-12-09T02:11:49.842Z,97905.36
2018-12-09T02:16:53.658Z,97901.99
2018-12-09T02:21:56.941Z,97897.97
2018-12-09T02:27:00.218Z,97874.52
2018-12-09T02:32:03.527Z,97867.63
2018-12-09T02:37:06.818Z,97869.66
2018-12-09T02:42:10.111Z,97862.59
2018-12-09T02:47:13.403Z,97862.45
2018-12-09T02:52:16.694Z,97868.14
2018-12-09T02:57:19.989Z,97862.45
2018-12-09T03:02:23.277Z,97857.41
2018-12-09T03:07:26.583Z,97857.23
2018-12-09T03:12:29.875Z,97858.43
2018-12-09T03:17:33.186Z,97849.37
2018-12-09T03:22:36.794Z,97848.02
2018-12-09T03:27:40.075Z,97855.38
2018-12-09T03:32:43.356Z,97855.75
2018-12-09T03:37:46.649Z,97854.73
2018-12-09T03:42:49.946Z,97852.88
2018-12-09T03:47:53.245Z,97865.77
2018-12-09T03:52:56.530Z,97880.34
2018-12-09T03:57:59.838Z,97911.32
2018-12-09T04:03:03.134Z,97920.86
2018-12-09T04:08:06.538Z,97899.91
2018-12-09T04:13:09.837Z,97881.13
2018-12-09T04:18:13.139Z,97883.53
2018-12-09T04:23:16.446Z,97883.20
2018-12-09T04:28:19.750Z,97884.23
2018-12-09T04:33:23.041Z,97881.55
2018-12-09T04:38:26.365Z,97886.12
2018-12-09T04:43:29.642Z,97886.62
2018-12-09T04:48:32.954Z,97900.38
2018-12-09T04:53:36.238Z,97908.74
2018-12-09T05:03:57.399Z,97927.73
2018-12-09T05:09:00.782Z,97915.77
2018-12-09T05:14:04.176Z,97917.44
2018-12-09T05:19:07.462Z,97923.48
2018-12-09T05:24:10.769Z,97928.71
2018-12-09T05:29:14.055Z,97938.78
2018-12-09T05:34:17.340Z,97949.52
2018-12-09T05:39:20.639Z,97957.44
2018-12-09T05:44:23.921Z,97965.66
2018-12-09T05:49:27.222Z,97972.72
2018-12-09T05:54:30.530Z,97977.58
2018-12-09T05:59:33.902Z,97984.64
2018-12-09T06:04:37.186Z,97984.28
2018-12-09T06:09:40.488Z,97985.30
2018-12-09T06:14:43.777Z,97989.63
2018-12-09T06:19:47.062Z,97984.95
2018-12-09T06:24:50.345Z,97989.81
2018-12-09T06:29:53.642Z,98002.56
2018-12-09T06:34:56.930Z,98013.94
2018-12-09T06:40:00.211Z,98026.36
2018-12-09T06:45:03.558Z,98034.21
2018-12-09T06:50:09.221Z,98031.55
2018-12-09T06:55:12.512Z,98040.43
2018-12-09T07:00:15.826Z,98042.95
2018-12-09T07:05:19.122Z,98049.33
2018-12-09T07:10:22.413Z,98060.52
2018-12-09T07:15:25.736Z,98063.38
2018-12-09T07:20:29.037Z,98065.56
2018-12-09T07:25:32.331Z,98078.46
2018-12-09T07:30:35.634Z,98081.49
2018-12-09T07:35:38.930Z,98084.82
2018-12-09T07:40:42.250Z,98091.52
2018-12-09T07:45:45.657Z,98098.39
2018-12-09T07:50:48.947Z,98106.43
2018-12-09T07:55:52.234Z,98117.94
2018-12-09T08:00:55.521Z,98119.47
2018-12-09T08:05:58.806Z,98117.32
2018-12-09T08:11:02.301Z,98127.38
2018-12-09T08:16:05.590Z,98125.20
2018-12-09T08:21:09.199Z,98144.60
2018-12-09T08:26:12.720Z,98138.09
2018-12-09T08:31:16.006Z,98140.77
2018-12-09T08:36:19.291Z,98141.94
2018-12-09T08:41:22.573Z,98151.48
2018-12-09T08:46:25.857Z,98145.96
2018-12-09T08:51:29.224Z,98159.02
2018-12-09T08:56:32.502Z,98161.01
2018-12-09T09:01:35.784Z,98169.38
2018-12-09T09:06:39.127Z,98170.73
2018-12-09T09:11:42.466Z,98184.30
2018-12-09T09:16:45.754Z,98199.02
2018-12-09T09:21:49.027Z,98206.39
2018-12-09T09:26:52.305Z,98208.23
2018-12-09T09:31:55.639Z,98207.39
2018-12-09T09:36:58.925Z,98200.52
2018-12-09T09:42:02.198Z,98207.89
2018-12-09T09:47:05.475Z,98200.69
2018-12-09T09:52:08.758Z,98212.75
2018-12-09T09:57:12.034Z,98213.25
2018-12-09T10:02:15.311Z,98216.94
2018-12-09T10:07:19.238Z,98218.45
2018-12-09T10:12:22.833Z,98215.27
2018-12-09T10:17:26.137Z,98212.59
2018-12-09T10:22:29.430Z,98213.25
2018-12-09T10:27:32.816Z,98219.28
2018-12-09T10:32:37.139Z,98207.90
2018-12-09T10:37:41.318Z,98211.92
2018-12-09T10:42:44.602Z,98208.91
2018-12-09T10:47:48.006Z,98208.04
2018-12-09T10:52:57.144Z,98219.12
2018-12-09T10:58:00.506Z,98215.23
2018-12-09T11:03:04.513Z,98221.43
2018-12-09T11:08:07.828Z,98215.23
2018-12-09T11:13:11.118Z,98209.55
2018-12-09T11:18:14.493Z,98215.41
2018-12-09T11:23:17.795Z,98211.05
2018-12-09T11:28:21.168Z,98224.95
2018-12-09T11:33:24.493Z,98212.39
2018-12-09T11:38:27.818Z,98217.58
2018-12-09T11:43:31.101Z,98207.90
2018-12-09T11:48:34.398Z,98219.25
2018-12-09T11:53:37.687Z,98206.36
2018-12-09T11:58:40.998Z,98216.08
2018-12-09T12:03:44.567Z,98213.59
2018-12-09T12:08:47.874Z,98215.94
2018-12-09T12:13:51.157Z,98215.26
2018-12-09T12:18:54.432Z,98222.95
2018-12-09T12:23:57.713Z,98225.14
2018-12-09T12:29:01.187Z,98233.01
2018-12-09T12:34:04.458Z,98239.71
2018-12-09T12:39:08.061Z,98243.86
2018-12-09T12:44:11.340Z,98270.14
2018-12-09T12:49:14.614Z,98270.14
2018-12-09T12:54:18.541Z,98304.62
2018-12-09T12:59:21.829Z,98324.09
2018-12-09T13:04:25.102Z,98333.96
2018-12-09T13:09:28.405Z,98343.68
2018-12-09T13:14:31.726Z,98346.89
2018-12-09T13:19:35.079Z,98350.58
2018-12-09T13:24:38.423Z,98363.00
2018-12-09T13:29:41.723Z,98355.64
2018-12-09T13:34:45.030Z,98367.02
2018-12-09T13:39:48.336Z,98367.36
2018-12-09T13:44:51.657Z,98379.25
2018-12-09T13:49:54.967Z,98386.29
2018-12-09T13:54:58.270Z,98394.83
2018-12-09T14:00:01.572Z,98403.06
2018-12-09T14:05:05.706Z,98398.55
2018-12-09T14:10:09.011Z,98412.78
2018-12-09T14:15:12.313Z,98423.67
2018-12-09T14:20:15.610Z,98431.75
2018-12-09T14:25:18.907Z,98448.17
2018-12-09T14:30:22.206Z,98441.97
2018-12-09T14:35:25.501Z,98457.05
2018-12-09T14:40:28.798Z,98464.09
2018-12-09T14:45:32.106Z,98473.71
2018-12-09T14:50:35.395Z,98475.85
2018-12-09T14:55:38.688Z,98489.16
2018-12-09T15:00:41.989Z,98492.78
2018-12-09T15:05:45.298Z,98506.05
2018-12-09T15:10:48.600Z,98509.56
2018-12-09T15:15:52.062Z,98513.92
2018-12-09T15:20:55.373Z,98510.24
2018-12-09T15:25:58.662Z,98514.97
2018-12-09T15:31:01.948Z,98524.86
2018-12-09T15:36:05.252Z,98530.73
2018-12-09T15:41:08.538Z,98539.77
2018-12-09T15:46:11.825Z,98549.66
2018-12-09T15:51:15.390Z,98542.96
2018-12-09T15:56:18.678Z,98542.28
2018-12-09T16:01:21.978Z,98552.17
2018-12-09T16:06:25.262Z,98561.05
2018-12-09T16:11:28.610Z,98562.02
2018-12-09T16:16:31.938Z,98579.61
2018-12-09T16:21:35.266Z,98593.23
2018-12-09T16:26:38.578Z,98603.67
2018-12-09T16:31:41.862Z,98607.20
2018-12-09T16:36:45.129Z,98616.59
2018-12-09T16:41:48.454Z,98619.59
2018-12-09T16:46:51.727Z,98632.13
2018-12-09T16:51:54.994Z,98636.98
2018-12-09T16:56:58.262Z,98653.06
2018-12-09T17:02:01.541Z,98668.48
2018-12-09T17:07:05.746Z,98681.73
2018-12-09T17:12:09.963Z,98681.66
2018-12-09T17:17:13.249Z,98693.11
2018-12-09T17:22:16.529Z,98699.39
2018-12-09T17:27:19.817Z,98716.59
2018-12-09T17:32:23.105Z,98728.98
2018-12-09T17:37:26.390Z,98730.69
2018-12-09T17:42:29.677Z,98736.74
2018-12-09T17:47:32.957Z,98742.59
2018-12-09T17:52:36.240Z,98741.89
2018-12-09T17:57:39.550Z,98747.96
2018-12-09T18:02:42.833Z,98759.05
2018-12-09T18:07:46.134Z,98763.21
2018-12-09T18:12:49.412Z,98765.39
2018-12-09T18:51:39.201Z,98843.59
2018-12-09T18:56:42.482Z,98855.34
2018-12-09T19:01:45.761Z,98870.97
2018-12-09T19:06:49.054Z,98877.72
2018-12-09T19:11:52.342Z,98895.59
2018-12-09T19:16:55.638Z,98902.53
2018-12-09T19:21:58.926Z,98914.08
2018-12-09T19:27:02.218Z,98931.31
2018-12-09T19:32:05.731Z,98937.99
2018-12-09T19:37:09.966Z,98943.53
2018-12-09T19:42:13.271Z,98963.17
2018-12-09T19:47:16.561Z,98976.16
2018-12-09T19:52:19.852Z,98988.59
2018-12-09T19:57:23.138Z,98996.50
2018-12-09T20:02:26.558Z,99001.72
2018-12-09T20:07:29.830Z,99009.95
2018-12-09T20:12:33.123Z,99017.64
2018-12-09T20:17:36.442Z,99030.87
2018-12-09T20:22:39.727Z,99032.20
2018-12-09T20:27:43.026Z,99045.98
2018-12-09T20:32:46.331Z,99055.45
2018-12-09T20:37:49.613Z,99057.93
2018-12-09T20:42:52.902Z,99074.73
2018-12-09T20:47:56.194Z,99081.61
2018-12-09T20:52:59.485Z,99094.76
2018-12-09T20:58:02.782Z,99110.02
2018-12-09T21:03:06.082Z,99116.06
2018-12-09T21:08:09.403Z,99120.59
2018-12-09T21:13:12.714Z,99127.22
2018-12-09T21:18:16.045Z,99135.95
2018-12-09T21:23:19.342Z,99150.31
2018-12-09T21:28:22.635Z,99155.37
2018-12-09T21:33:25.940Z,99167.52
2018-12-09T21:38:29.247Z,99166.97
2018-12-09T21:43:32.569Z,99180.31
2018-12-09T21:48:35.862Z,99183.27
2018-12-09T21:53:39.161Z,99199.88
2018-12-09T21:58:42.469Z,99210.41
2018-12-09T22:03:45.791Z,99218.44
2018-12-09T22:08:49.118Z,99229.75
2018-12-09T22:13:53.239Z,99219.59
2018-12-09T22:18:56.562Z,99236.48
2018-12-09T22:23:59.866Z,99244.37
2018-12-09T22:29:03.158Z,99252.70
2018-12-09T22:34:06.466Z,99265.25
2018-12-09T22:39:09.766Z,99273.69
2018-12-09T22:44:13.066Z,99290.33
2018-12-09T22:49:16.369Z,99301.92
2018-12-09T22:54:19.666Z,99299.27
2018-12-09T22:59:22.966Z,99318.72
2018-12-09T23:04:26.262Z,99323.94
2018-12-09T23:09:29.638Z,99327.41
2018-12-09T23:14:32.966Z,99336.69
2018-12-09T23:19:36.289Z,99349.03
2018-12-09T23:24:39.595Z,99357.94
2018-12-09T23:29:42.914Z,99368.73
2018-12-09T23:34:46.220Z,99368.70
2018-12-09T23:39:49.530Z,99369.95
2018-12-09T23:44:52.845Z,99373.48
2018-12-09T23:49:56.147Z,99380.30
2018-12-09T23:54:59.461Z,99390.83
